ROMMA est une association bénévole à but non lucratif. Votre soutien est indispensable : ADHERER à ROMMA ou FAIRE un DON

Eygliers - (05, Hautes-Alpes)

Guillestrois (965 m)   Longitude: 6° 38' 04" E   Latitude: 44° 40' 37" N Station partenaire n°53
 

Détail journalier du     <<     >>

Température Precipitation Humidité Vent Dir Rafale Dir. rafale Ensol.
Heure (°C) (mm) (%) (km/h) (km/h) (min)
01:00 8.40823NE6ENE0
02:00 8.70803NNE13NNE0
03:00 8.40823E10E0
04:00 7.90862NE10NNE0
05:00 7.50862ENE8ENE0
06:00 7.30894N11NNE0
07:00 7.30892S6N0
08:00 7.10911ESE8ESE0
09:00 7.90921NE6NE15
10:00 9.60851N8NO35
11:00 10.50792OSO6O10
12:00 11.80784ESE19E10
13:00 12.40755SSE16SO5
14:00 12.90736ESE21SO0
15:00 12.60786SO21SSO10
16:00 12.30785SO16E10
17:00 12.10784NNE13OSO45
18:00 12.10777E18ENE0
19:00 11.90766E19NE0
20:00 11.60775NNE18ENE0
21:00 10.30.2876E19E0
22:00 9.60.2913ENE10NE0
23:00 9.20923NNO10SO0
minuit 9.10933E15SSE0

Graphique du 10-11-2018

 

Serveur OMMA